sensor_id;sensor_type;location;lat;lon;timestamp;P1;durP1;ratioP1;P2;durP2;ratioP2
23394;SDS011;11870;53.084;18.206;2022-09-09T00:01:54;9.57;;;7.20;;
23394;SDS011;11870;53.084;18.206;2022-09-09T00:04:27;13.50;;;7.30;;
23394;SDS011;11870;53.084;18.206;2022-09-09T00:06:59;13.10;;;6.97;;
23394;SDS011;11870;53.084;18.206;2022-09-09T00:09:46;10.88;;;7.32;;
23394;SDS011;11870;53.084;18.206;2022-09-09T00:12:27;13.73;;;8.15;;
23394;SDS011;11870;53.084;18.206;2022-09-09T00:15:23;14.52;;;7.57;;
23394;SDS011;11870;53.084;18.206;2022-09-09T00:17:58;11.43;;;7.78;;
23394;SDS011;11870;53.084;18.206;2022-09-09T00:23:19;16.27;;;7.90;;
23394;SDS011;11870;53.084;18.206;2022-09-09T00:26:04;11.55;;;8.02;;
23394;SDS011;11870;53.084;18.206;2022-09-09T00:28:36;13.52;;;8.63;;
23394;SDS011;11870;53.084;18.206;2022-09-09T00:31:11;11.27;;;8.60;;
23394;SDS011;11870;53.084;18.206;2022-09-09T00:33:48;12.75;;;8.23;;
23394;SDS011;11870;53.084;18.206;2022-09-09T00:36:17;13.93;;;8.88;;
23394;SDS011;11870;53.084;18.206;2022-09-09T00:38:49;13.35;;;8.82;;
23394;SDS011;11870;53.084;18.206;2022-09-09T00:49:29;19.33;;;9.20;;
23394;SDS011;11870;53.084;18.206;2022-09-09T00:54:36;12.98;;;8.80;;
23394;SDS011;11870;53.084;18.206;2022-09-09T00:57:27;13.30;;;8.90;;
23394;SDS011;11870;53.084;18.206;2022-09-09T01:02:49;11.77;;;8.65;;
23394;SDS011;11870;53.084;18.206;2022-09-09T01:11:32;14.35;;;9.13;;
23394;SDS011;11870;53.084;18.206;2022-09-09T01:16:56;15.38;;;10.07;;
23394;SDS011;11870;53.084;18.206;2022-09-09T01:19:51;16.02;;;9.40;;
23394;SDS011;11870;53.084;18.206;2022-09-09T01:25:22;17.35;;;9.60;;
23394;SDS011;11870;53.084;18.206;2022-09-09T01:28:16;14.60;;;9.18;;
23394;SDS011;11870;53.084;18.206;2022-09-09T01:30:47;13.77;;;9.27;;
23394;SDS011;11870;53.084;18.206;2022-09-09T01:33:15;15.55;;;9.52;;
23394;SDS011;11870;53.084;18.206;2022-09-09T01:35:44;16.15;;;9.88;;
23394;SDS011;11870;53.084;18.206;2022-09-09T01:38:20;12.80;;;9.45;;
23394;SDS011;11870;53.084;18.206;2022-09-09T01:40:47;13.82;;;9.13;;
23394;SDS011;11870;53.084;18.206;2022-09-09T01:43:14;16.10;;;10.27;;
23394;SDS011;11870;53.084;18.206;2022-09-09T01:45:40;12.85;;;9.32;;
23394;SDS011;11870;53.084;18.206;2022-09-09T01:48:08;14.38;;;9.80;;
23394;SDS011;11870;53.084;18.206;2022-09-09T01:50:34;15.10;;;9.07;;
23394;SDS011;11870;53.084;18.206;2022-09-09T01:53:00;14.77;;;9.32;;
23394;SDS011;11870;53.084;18.206;2022-09-09T01:55:29;17.45;;;10.27;;
23394;SDS011;11870;53.084;18.206;2022-09-09T02:03:38;14.68;;;9.45;;
23394;SDS011;11870;53.084;18.206;2022-09-09T02:08:54;17.10;;;10.23;;
23394;SDS011;11870;53.084;18.206;2022-09-09T02:11:22;14.32;;;10.25;;
23394;SDS011;11870;53.084;18.206;2022-09-09T02:13:54;13.88;;;9.55;;
23394;SDS011;11870;53.084;18.206;2022-09-09T02:16:38;15.07;;;10.15;;
23394;SDS011;11870;53.084;18.206;2022-09-09T02:19:24;14.52;;;10.10;;
23394;SDS011;11870;53.084;18.206;2022-09-09T02:21:56;15.02;;;10.25;;
23394;SDS011;11870;53.084;18.206;2022-09-09T02:24:25;15.15;;;10.27;;
23394;SDS011;11870;53.084;18.206;2022-09-09T02:26:53;14.65;;;10.30;;
23394;SDS011;11870;53.084;18.206;2022-09-09T02:29:22;15.43;;;10.50;;
23394;SDS011;11870;53.084;18.206;2022-09-09T02:31:56;16.63;;;10.88;;
23394;SDS011;11870;53.084;18.206;2022-09-09T02:34:25;15.65;;;10.35;;
23394;SDS011;11870;53.084;18.206;2022-09-09T02:36:53;15.00;;;10.88;;
23394;SDS011;11870;53.084;18.206;2022-09-09T02:39:20;14.57;;;10.23;;
23394;SDS011;11870;53.084;18.206;2022-09-09T02:41:46;16.42;;;10.63;;
23394;SDS011;11870;53.084;18.206;2022-09-09T02:44:13;14.43;;;9.55;;
23394;SDS011;11870;53.084;18.206;2022-09-09T02:55:14;16.90;;;10.70;;
23394;SDS011;11870;53.084;18.206;2022-09-09T02:57:46;18.02;;;11.50;;
23394;SDS011;11870;53.084;18.206;2022-09-09T03:00:14;17.35;;;10.13;;
23394;SDS011;11870;53.084;18.206;2022-09-09T03:02:40;15.32;;;10.95;;
23394;SDS011;11870;53.084;18.206;2022-09-09T03:05:07;18.13;;;11.05;;
23394;SDS011;11870;53.084;18.206;2022-09-09T03:07:33;15.80;;;11.50;;
23394;SDS011;11870;53.084;18.206;2022-09-09T03:10:00;16.40;;;11.63;;
23394;SDS011;11870;53.084;18.206;2022-09-09T03:12:26;16.30;;;11.32;;
23394;SDS011;11870;53.084;18.206;2022-09-09T03:14:52;19.67;;;11.25;;
23394;SDS011;11870;53.084;18.206;2022-09-09T03:17:18;16.20;;;11.20;;
23394;SDS011;11870;53.084;18.206;2022-09-09T03:19:43;17.10;;;11.82;;
23394;SDS011;11870;53.084;18.206;2022-09-09T03:22:10;16.85;;;11.57;;
23394;SDS011;11870;53.084;18.206;2022-09-09T03:24:36;16.38;;;11.43;;
23394;SDS011;11870;53.084;18.206;2022-09-09T03:27:02;16.08;;;11.60;;
23394;SDS011;11870;53.084;18.206;2022-09-09T03:29:28;19.00;;;12.10;;
23394;SDS011;11870;53.084;18.206;2022-09-09T03:31:54;18.42;;;12.02;;
23394;SDS011;11870;53.084;18.206;2022-09-09T03:34:20;19.27;;;12.38;;
23394;SDS011;11870;53.084;18.206;2022-09-09T03:36:46;19.92;;;11.88;;
23394;SDS011;11870;53.084;18.206;2022-09-09T03:39:13;17.50;;;11.57;;
23394;SDS011;11870;53.084;18.206;2022-09-09T03:41:39;18.95;;;12.30;;
23394;SDS011;11870;53.084;18.206;2022-09-09T03:44:05;15.70;;;11.40;;
23394;SDS011;11870;53.084;18.206;2022-09-09T03:46:31;19.40;;;12.60;;
23394;SDS011;11870;53.084;18.206;2022-09-09T03:48:57;20.42;;;12.85;;
23394;SDS011;11870;53.084;18.206;2022-09-09T03:51:23;18.52;;;12.82;;
23394;SDS011;11870;53.084;18.206;2022-09-09T03:53:49;19.63;;;12.68;;
23394;SDS011;11870;53.084;18.206;2022-09-09T03:56:15;21.38;;;14.25;;
23394;SDS011;11870;53.084;18.206;2022-09-09T03:58:41;19.92;;;13.93;;
23394;SDS011;11870;53.084;18.206;2022-09-09T04:01:09;20.20;;;14.55;;
23394;SDS011;11870;53.084;18.206;2022-09-09T04:03:40;20.00;;;14.55;;
23394;SDS011;11870;53.084;18.206;2022-09-09T04:06:07;22.58;;;16.05;;
23394;SDS011;11870;53.084;18.206;2022-09-09T04:08:36;23.52;;;16.48;;
23394;SDS011;11870;53.084;18.206;2022-09-09T04:11:03;25.63;;;17.55;;
23394;SDS011;11870;53.084;18.206;2022-09-09T04:13:33;23.85;;;16.73;;
23394;SDS011;11870;53.084;18.206;2022-09-09T04:15:59;25.73;;;17.60;;
23394;SDS011;11870;53.084;18.206;2022-09-09T04:18:28;27.95;;;17.42;;
23394;SDS011;11870;53.084;18.206;2022-09-09T04:20:55;25.13;;;17.90;;
23394;SDS011;11870;53.084;18.206;2022-09-09T04:23:25;26.50;;;17.95;;
23394;SDS011;11870;53.084;18.206;2022-09-09T04:25:54;30.30;;;17.80;;
23394;SDS011;11870;53.084;18.206;2022-09-09T04:28:25;29.27;;;18.42;;
23394;SDS011;11870;53.084;18.206;2022-09-09T04:30:54;26.13;;;17.77;;
23394;SDS011;11870;53.084;18.206;2022-09-09T04:33:20;27.95;;;19.13;;
23394;SDS011;11870;53.084;18.206;2022-09-09T04:35:47;27.50;;;18.58;;
23394;SDS011;11870;53.084;18.206;2022-09-09T04:38:15;31.33;;;20.15;;
23394;SDS011;11870;53.084;18.206;2022-09-09T04:40:51;26.92;;;19.67;;
23394;SDS011;11870;53.084;18.206;2022-09-09T04:43:19;29.10;;;18.63;;
23394;SDS011;11870;53.084;18.206;2022-09-09T04:45:46;29.70;;;19.92;;
23394;SDS011;11870;53.084;18.206;2022-09-09T04:48:14;32.20;;;19.80;;
23394;SDS011;11870;53.084;18.206;2022-09-09T04:50:41;27.83;;;19.92;;
23394;SDS011;11870;53.084;18.206;2022-09-09T04:53:06;28.95;;;19.48;;
23394;SDS011;11870;53.084;18.206;2022-09-09T04:55:33;31.60;;;20.38;;
23394;SDS011;11870;53.084;18.206;2022-09-09T04:58:04;28.60;;;19.27;;
23394;SDS011;11870;53.084;18.206;2022-09-09T05:00:32;28.90;;;19.45;;
23394;SDS011;11870;53.084;18.206;2022-09-09T05:03:05;32.75;;;20.77;;
23394;SDS011;11870;53.084;18.206;2022-09-09T05:05:33;34.03;;;20.13;;
23394;SDS011;11870;53.084;18.206;2022-09-09T05:08:07;31.90;;;20.27;;
23394;SDS011;11870;53.084;18.206;2022-09-09T05:10:35;35.67;;;21.10;;
23394;SDS011;11870;53.084;18.206;2022-09-09T05:13:03;37.95;;;21.10;;
23394;SDS011;11870;53.084;18.206;2022-09-09T05:15:30;32.40;;;20.92;;
23394;SDS011;11870;53.084;18.206;2022-09-09T05:17:57;32.75;;;21.85;;
23394;SDS011;11870;53.084;18.206;2022-09-09T05:20:27;34.33;;;21.15;;
23394;SDS011;11870;53.084;18.206;2022-09-09T05:22:53;39.25;;;22.13;;
23394;SDS011;11870;53.084;18.206;2022-09-09T05:25:20;38.17;;;22.40;;
23394;SDS011;11870;53.084;18.206;2022-09-09T05:27:47;40.08;;;23.17;;
23394;SDS011;11870;53.084;18.206;2022-09-09T05:30:14;36.15;;;21.73;;
23394;SDS011;11870;53.084;18.206;2022-09-09T05:32:41;32.28;;;21.90;;
23394;SDS011;11870;53.084;18.206;2022-09-09T05:35:07;38.75;;;22.08;;
23394;SDS011;11870;53.084;18.206;2022-09-09T05:37:33;37.17;;;23.75;;
23394;SDS011;11870;53.084;18.206;2022-09-09T05:39:59;32.95;;;22.15;;
23394;SDS011;11870;53.084;18.206;2022-09-09T05:42:29;36.95;;;22.45;;
23394;SDS011;11870;53.084;18.206;2022-09-09T05:44:56;39.10;;;22.60;;
23394;SDS011;11870;53.084;18.206;2022-09-09T05:47:22;35.72;;;20.77;;
23394;SDS011;11870;53.084;18.206;2022-09-09T05:49:48;39.55;;;22.90;;
23394;SDS011;11870;53.084;18.206;2022-09-09T05:52:14;44.63;;;22.92;;
23394;SDS011;11870;53.084;18.206;2022-09-09T05:54:40;37.47;;;20.80;;
23394;SDS011;11870;53.084;18.206;2022-09-09T05:57:08;36.92;;;21.33;;
23394;SDS011;11870;53.084;18.206;2022-09-09T05:59:34;38.45;;;21.10;;
23394;SDS011;11870;53.084;18.206;2022-09-09T06:01:59;39.40;;;22.55;;
23394;SDS011;11870;53.084;18.206;2022-09-09T06:04:25;39.22;;;21.95;;
23394;SDS011;11870;53.084;18.206;2022-09-09T06:06:51;39.47;;;22.08;;
23394;SDS011;11870;53.084;18.206;2022-09-09T06:09:17;36.03;;;20.70;;
23394;SDS011;11870;53.084;18.206;2022-09-09T06:11:43;40.85;;;22.48;;
23394;SDS011;11870;53.084;18.206;2022-09-09T06:14:10;38.83;;;21.55;;
23394;SDS011;11870;53.084;18.206;2022-09-09T06:16:36;48.65;;;22.60;;
23394;SDS011;11870;53.084;18.206;2022-09-09T06:19:08;42.08;;;21.08;;
23394;SDS011;11870;53.084;18.206;2022-09-09T06:21:35;43.03;;;21.75;;
23394;SDS011;11870;53.084;18.206;2022-09-09T06:24:09;41.58;;;21.23;;
23394;SDS011;11870;53.084;18.206;2022-09-09T06:26:39;40.60;;;21.40;;
23394;SDS011;11870;53.084;18.206;2022-09-09T06:29:11;39.17;;;19.63;;
23394;SDS011;11870;53.084;18.206;2022-09-09T06:31:37;39.35;;;20.60;;
23394;SDS011;11870;53.084;18.206;2022-09-09T06:34:04;41.90;;;20.77;;
23394;SDS011;11870;53.084;18.206;2022-09-09T06:36:32;47.05;;;20.73;;
23394;SDS011;11870;53.084;18.206;2022-09-09T06:39:03;39.70;;;19.77;;
23394;SDS011;11870;53.084;18.206;2022-09-09T06:41:31;41.67;;;19.13;;
23394;SDS011;11870;53.084;18.206;2022-09-09T06:43:58;38.60;;;19.70;;
23394;SDS011;11870;53.084;18.206;2022-09-09T06:46:25;37.75;;;19.35;;
23394;SDS011;11870;53.084;18.206;2022-09-09T06:48:53;44.35;;;21.27;;
23394;SDS011;11870;53.084;18.206;2022-09-09T06:51:21;43.42;;;21.23;;
23394;SDS011;11870;53.084;18.206;2022-09-09T06:53:52;39.95;;;21.27;;
23394;SDS011;11870;53.084;18.206;2022-09-09T06:56:26;43.25;;;18.90;;
23394;SDS011;11870;53.084;18.206;2022-09-09T06:58:54;38.92;;;18.92;;
23394;SDS011;11870;53.084;18.206;2022-09-09T07:01:25;39.60;;;19.30;;
23394;SDS011;11870;53.084;18.206;2022-09-09T07:03:53;44.65;;;19.88;;
23394;SDS011;11870;53.084;18.206;2022-09-09T07:06:22;40.60;;;20.00;;
23394;SDS011;11870;53.084;18.206;2022-09-09T07:08:53;42.40;;;19.90;;
23394;SDS011;11870;53.084;18.206;2022-09-09T07:11:21;40.03;;;19.20;;
23394;SDS011;11870;53.084;18.206;2022-09-09T07:13:48;47.22;;;20.63;;
23394;SDS011;11870;53.084;18.206;2022-09-09T07:16:16;43.92;;;20.95;;
23394;SDS011;11870;53.084;18.206;2022-09-09T07:18:43;44.10;;;20.33;;
23394;SDS011;11870;53.084;18.206;2022-09-09T07:21:10;40.78;;;18.77;;
23394;SDS011;11870;53.084;18.206;2022-09-09T07:23:37;49.33;;;19.70;;
23394;SDS011;11870;53.084;18.206;2022-09-09T07:26:08;45.08;;;19.75;;
23394;SDS011;11870;53.084;18.206;2022-09-09T07:28:35;48.35;;;20.88;;
23394;SDS011;11870;53.084;18.206;2022-09-09T07:31:02;42.85;;;20.33;;
23394;SDS011;11870;53.084;18.206;2022-09-09T07:33:33;42.78;;;19.38;;
23394;SDS011;11870;53.084;18.206;2022-09-09T07:36:08;41.75;;;19.10;;
23394;SDS011;11870;53.084;18.206;2022-09-09T07:38:41;40.17;;;18.95;;
23394;SDS011;11870;53.084;18.206;2022-09-09T07:41:12;39.58;;;18.55;;
23394;SDS011;11870;53.084;18.206;2022-09-09T07:43:41;40.17;;;19.05;;
23394;SDS011;11870;53.084;18.206;2022-09-09T07:46:13;41.70;;;19.45;;
23394;SDS011;11870;53.084;18.206;2022-09-09T07:48:45;43.25;;;19.30;;
23394;SDS011;11870;53.084;18.206;2022-09-09T07:51:15;41.95;;;19.92;;
23394;SDS011;11870;53.084;18.206;2022-09-09T07:53:46;39.85;;;19.48;;
23394;SDS011;11870;53.084;18.206;2022-09-09T07:56:13;43.38;;;19.73;;
23394;SDS011;11870;53.084;18.206;2022-09-09T07:58:44;39.50;;;20.33;;
23394;SDS011;11870;53.084;18.206;2022-09-09T08:01:19;40.92;;;20.40;;
23394;SDS011;11870;53.084;18.206;2022-09-09T08:03:51;35.47;;;18.50;;
23394;SDS011;11870;53.084;18.206;2022-09-09T08:06:21;42.05;;;19.73;;
23394;SDS011;11870;53.084;18.206;2022-09-09T08:08:49;44.80;;;19.63;;
23394;SDS011;11870;53.084;18.206;2022-09-09T08:11:17;38.83;;;19.55;;
23394;SDS011;11870;53.084;18.206;2022-09-09T08:13:44;39.58;;;19.63;;
23394;SDS011;11870;53.084;18.206;2022-09-09T08:19:52;33.35;;;17.33;;
23394;SDS011;11870;53.084;18.206;2022-09-09T08:22:19;38.42;;;18.48;;
23394;SDS011;11870;53.084;18.206;2022-09-09T08:24:45;37.78;;;18.02;;
23394;SDS011;11870;53.084;18.206;2022-09-09T08:27:12;37.70;;;19.38;;
23394;SDS011;11870;53.084;18.206;2022-09-09T08:29:38;40.03;;;18.58;;
23394;SDS011;11870;53.084;18.206;2022-09-09T08:32:04;35.95;;;18.92;;
23394;SDS011;11870;53.084;18.206;2022-09-09T08:34:30;39.95;;;19.33;;
23394;SDS011;11870;53.084;18.206;2022-09-09T08:36:57;37.95;;;19.08;;
23394;SDS011;11870;53.084;18.206;2022-09-09T08:39:23;36.15;;;18.92;;
23394;SDS011;11870;53.084;18.206;2022-09-09T08:47:26;35.80;;;18.70;;
23394;SDS011;11870;53.084;18.206;2022-09-09T08:58:17;36.95;;;18.73;;
23394;SDS011;11870;53.084;18.206;2022-09-09T09:11:59;31.52;;;16.60;;
23394;SDS011;11870;53.084;18.206;2022-09-09T09:14:28;35.00;;;18.23;;
23394;SDS011;11870;53.084;18.206;2022-09-09T09:16:57;36.15;;;19.40;;
23394;SDS011;11870;53.084;18.206;2022-09-09T09:19:44;38.40;;;18.67;;
23394;SDS011;11870;53.084;18.206;2022-09-09T09:22:20;37.03;;;19.42;;
23394;SDS011;11870;53.084;18.206;2022-09-09T09:24:55;37.03;;;18.83;;
23394;SDS011;11870;53.084;18.206;2022-09-09T09:30:13;37.10;;;18.60;;
23394;SDS011;11870;53.084;18.206;2022-09-09T09:32:44;39.33;;;19.20;;
23394;SDS011;11870;53.084;18.206;2022-09-09T09:35:30;37.05;;;19.00;;
23394;SDS011;11870;53.084;18.206;2022-09-09T09:37:56;32.35;;;18.33;;
23394;SDS011;11870;53.084;18.206;2022-09-09T09:40:22;34.15;;;18.33;;
23394;SDS011;11870;53.084;18.206;2022-09-09T09:42:59;36.55;;;18.63;;
23394;SDS011;11870;53.084;18.206;2022-09-09T09:45:28;35.55;;;18.38;;
23394;SDS011;11870;53.084;18.206;2022-09-09T09:48:03;39.17;;;18.40;;
23394;SDS011;11870;53.084;18.206;2022-09-09T09:50:31;36.67;;;18.30;;
23394;SDS011;11870;53.084;18.206;2022-09-09T09:52:59;33.60;;;18.00;;
23394;SDS011;11870;53.084;18.206;2022-09-09T09:55:30;32.05;;;17.17;;
23394;SDS011;11870;53.084;18.206;2022-09-09T09:58:05;35.05;;;17.15;;
23394;SDS011;11870;53.084;18.206;2022-09-09T10:00:35;32.15;;;17.33;;
23394;SDS011;11870;53.084;18.206;2022-09-09T10:03:01;32.67;;;17.52;;
23394;SDS011;11870;53.084;18.206;2022-09-09T10:05:38;35.20;;;17.73;;
23394;SDS011;11870;53.084;18.206;2022-09-09T10:08:13;35.20;;;18.17;;
23394;SDS011;11870;53.084;18.206;2022-09-09T10:10:54;32.50;;;17.60;;
23394;SDS011;11870;53.084;18.206;2022-09-09T10:18:56;30.60;;;16.15;;
23394;SDS011;11870;53.084;18.206;2022-09-09T10:27:18;29.45;;;15.15;;
23394;SDS011;11870;53.084;18.206;2022-09-09T10:30:02;31.88;;;15.52;;
23394;SDS011;11870;53.084;18.206;2022-09-09T10:35:30;30.35;;;16.08;;
23394;SDS011;11870;53.084;18.206;2022-09-09T10:43:28;30.90;;;15.85;;
23394;SDS011;11870;53.084;18.206;2022-09-09T11:00:50;28.42;;;14.77;;
23394;SDS011;11870;53.084;18.206;2022-09-09T11:03:15;27.75;;;14.35;;
23394;SDS011;11870;53.084;18.206;2022-09-09T11:06:05;25.02;;;14.70;;
23394;SDS011;11870;53.084;18.206;2022-09-09T11:08:38;29.40;;;15.27;;
23394;SDS011;11870;53.084;18.206;2022-09-09T11:11:08;33.92;;;14.98;;
23394;SDS011;11870;53.084;18.206;2022-09-09T11:19:19;25.45;;;14.50;;
23394;SDS011;11870;53.084;18.206;2022-09-09T11:21:53;24.30;;;15.88;;
23394;SDS011;11870;53.084;18.206;2022-09-09T11:24:22;23.58;;;13.27;;
23394;SDS011;11870;53.084;18.206;2022-09-09T11:26:58;24.08;;;13.85;;
23394;SDS011;11870;53.084;18.206;2022-09-09T11:35:33;22.48;;;12.85;;
23394;SDS011;11870;53.084;18.206;2022-09-09T11:41:03;23.83;;;12.75;;
23394;SDS011;11870;53.084;18.206;2022-09-09T11:43:41;20.15;;;12.27;;
23394;SDS011;11870;53.084;18.206;2022-09-09T11:46:12;16.88;;;11.23;;
23394;SDS011;11870;53.084;18.206;2022-09-09T11:48:44;19.05;;;10.93;;
23394;SDS011;11870;53.084;18.206;2022-09-09T11:51:12;21.23;;;10.70;;
23394;SDS011;11870;53.084;18.206;2022-09-09T11:53:52;18.17;;;10.75;;
23394;SDS011;11870;53.084;18.206;2022-09-09T11:56:42;18.83;;;11.20;;
23394;SDS011;11870;53.084;18.206;2022-09-09T11:59:20;20.25;;;12.25;;
23394;SDS011;11870;53.084;18.206;2022-09-09T12:01:56;19.38;;;11.77;;
23394;SDS011;11870;53.084;18.206;2022-09-09T12:04:59;22.80;;;13.80;;
23394;SDS011;11870;53.084;18.206;2022-09-09T12:10:34;24.90;;;14.60;;
23394;SDS011;11870;53.084;18.206;2022-09-09T12:13:16;20.55;;;12.23;;
23394;SDS011;11870;53.084;18.206;2022-09-09T12:15:50;20.70;;;13.25;;
23394;SDS011;11870;53.084;18.206;2022-09-09T12:18:35;24.40;;;13.13;;
23394;SDS011;11870;53.084;18.206;2022-09-09T12:24:05;18.13;;;12.18;;
23394;SDS011;11870;53.084;18.206;2022-09-09T12:26:41;20.30;;;13.25;;
23394;SDS011;11870;53.084;18.206;2022-09-09T12:34:43;20.13;;;12.80;;
23394;SDS011;11870;53.084;18.206;2022-09-09T12:40:00;21.52;;;13.35;;
23394;SDS011;11870;53.084;18.206;2022-09-09T12:42:30;18.65;;;12.77;;
23394;SDS011;11870;53.084;18.206;2022-09-09T12:44:59;21.90;;;12.82;;
23394;SDS011;11870;53.084;18.206;2022-09-09T12:47:38;18.10;;;11.85;;
23394;SDS011;11870;53.084;18.206;2022-09-09T12:50:20;21.50;;;13.05;;
23394;SDS011;11870;53.084;18.206;2022-09-09T12:52:49;20.20;;;12.82;;
23394;SDS011;11870;53.084;18.206;2022-09-09T12:55:19;21.88;;;12.65;;
23394;SDS011;11870;53.084;18.206;2022-09-09T12:57:50;21.92;;;13.32;;
23394;SDS011;11870;53.084;18.206;2022-09-09T13:00:19;21.33;;;12.70;;
23394;SDS011;11870;53.084;18.206;2022-09-09T13:02:50;23.70;;;13.05;;
23394;SDS011;11870;53.084;18.206;2022-09-09T13:05:22;20.98;;;13.07;;
23394;SDS011;11870;53.084;18.206;2022-09-09T13:08:06;18.90;;;12.02;;
23394;SDS011;11870;53.084;18.206;2022-09-09T13:10:38;20.38;;;12.48;;
23394;SDS011;11870;53.084;18.206;2022-09-09T13:13:22;19.67;;;12.20;;
23394;SDS011;11870;53.084;18.206;2022-09-09T13:15:56;19.92;;;12.27;;
23394;SDS011;11870;53.084;18.206;2022-09-09T13:18:28;20.48;;;12.38;;
23394;SDS011;11870;53.084;18.206;2022-09-09T13:20:59;18.50;;;11.90;;
23394;SDS011;11870;53.084;18.206;2022-09-09T13:23:26;19.98;;;11.63;;
23394;SDS011;11870;53.084;18.206;2022-09-09T13:25:55;19.33;;;11.50;;
23394;SDS011;11870;53.084;18.206;2022-09-09T13:28:24;17.98;;;10.82;;
23394;SDS011;11870;53.084;18.206;2022-09-09T13:31:36;18.02;;;11.65;;
23394;SDS011;11870;53.084;18.206;2022-09-09T13:33:46;20.92;;;11.13;;
23394;SDS011;11870;53.084;18.206;2022-09-09T13:36:12;21.58;;;11.55;;
23394;SDS011;11870;53.084;18.206;2022-09-09T13:41:21;17.35;;;10.63;;
23394;SDS011;11870;53.084;18.206;2022-09-09T13:43:55;18.52;;;11.23;;
23394;SDS011;11870;53.084;18.206;2022-09-09T13:49:02;19.40;;;11.68;;
23394;SDS011;11870;53.084;18.206;2022-09-09T13:52:09;19.38;;;11.95;;
23394;SDS011;11870;53.084;18.206;2022-09-09T13:54:29;21.33;;;11.10;;
23394;SDS011;11870;53.084;18.206;2022-09-09T13:56:56;18.30;;;11.10;;
23394;SDS011;11870;53.084;18.206;2022-09-09T13:59:22;18.05;;;11.25;;
23394;SDS011;11870;53.084;18.206;2022-09-09T14:01:49;17.77;;;10.95;;
23394;SDS011;11870;53.084;18.206;2022-09-09T14:04:18;17.88;;;10.52;;
23394;SDS011;11870;53.084;18.206;2022-09-09T14:06:46;19.45;;;11.65;;
23394;SDS011;11870;53.084;18.206;2022-09-09T14:09:13;18.25;;;11.63;;
23394;SDS011;11870;53.084;18.206;2022-09-09T14:11:41;19.10;;;11.82;;
23394;SDS011;11870;53.084;18.206;2022-09-09T14:14:08;16.33;;;10.90;;
23394;SDS011;11870;53.084;18.206;2022-09-09T14:16:34;18.17;;;11.40;;
23394;SDS011;11870;53.084;18.206;2022-09-09T14:19:00;19.05;;;11.73;;
23394;SDS011;11870;53.084;18.206;2022-09-09T14:21:27;17.50;;;10.55;;
23394;SDS011;11870;53.084;18.206;2022-09-09T14:23:53;17.92;;;11.23;;
23394;SDS011;11870;53.084;18.206;2022-09-09T14:26:20;17.40;;;10.38;;
23394;SDS011;11870;53.084;18.206;2022-09-09T14:28:46;18.88;;;10.98;;
23394;SDS011;11870;53.084;18.206;2022-09-09T14:31:12;20.25;;;12.05;;
23394;SDS011;11870;53.084;18.206;2022-09-09T14:33:39;19.70;;;11.30;;
23394;SDS011;11870;53.084;18.206;2022-09-09T14:36:05;19.02;;;12.40;;
23394;SDS011;11870;53.084;18.206;2022-09-09T14:38:33;19.42;;;11.68;;
23394;SDS011;11870;53.084;18.206;2022-09-09T14:41:04;17.13;;;11.18;;
23394;SDS011;11870;53.084;18.206;2022-09-09T14:43:42;19.33;;;12.23;;
23394;SDS011;11870;53.084;18.206;2022-09-09T14:46:09;17.13;;;11.32;;
23394;SDS011;11870;53.084;18.206;2022-09-09T14:48:36;17.42;;;11.23;;
23394;SDS011;11870;53.084;18.206;2022-09-09T14:53:59;19.58;;;12.23;;
23394;SDS011;11870;53.084;18.206;2022-09-09T14:56:27;17.92;;;11.85;;
23394;SDS011;11870;53.084;18.206;2022-09-09T14:58:55;18.60;;;11.55;;
23394;SDS011;11870;53.084;18.206;2022-09-09T15:01:22;18.83;;;11.40;;
23394;SDS011;11870;53.084;18.206;2022-09-09T15:03:50;18.73;;;11.55;;
23394;SDS011;11870;53.084;18.206;2022-09-09T15:06:17;18.80;;;11.52;;
23394;SDS011;11870;53.084;18.206;2022-09-09T15:08:44;21.75;;;12.38;;
23394;SDS011;11870;53.084;18.206;2022-09-09T15:11:12;19.70;;;11.68;;
23394;SDS011;11870;53.084;18.206;2022-09-09T15:13:39;18.83;;;12.40;;
23394;SDS011;11870;53.084;18.206;2022-09-09T15:16:08;17.90;;;11.85;;
23394;SDS011;11870;53.084;18.206;2022-09-09T15:18:42;18.85;;;12.20;;
23394;SDS011;11870;53.084;18.206;2022-09-09T15:21:14;18.15;;;12.48;;
23394;SDS011;11870;53.084;18.206;2022-09-09T15:23:42;24.08;;;12.63;;
23394;SDS011;11870;53.084;18.206;2022-09-09T15:26:09;20.80;;;12.63;;
23394;SDS011;11870;53.084;18.206;2022-09-09T15:28:37;18.88;;;12.80;;
23394;SDS011;11870;53.084;18.206;2022-09-09T15:31:07;21.75;;;13.18;;
23394;SDS011;11870;53.084;18.206;2022-09-09T15:33:52;22.85;;;12.95;;
23394;SDS011;11870;53.084;18.206;2022-09-09T15:36:29;24.05;;;13.95;;
23394;SDS011;11870;53.084;18.206;2022-09-09T15:38:55;27.65;;;14.02;;
23394;SDS011;11870;53.084;18.206;2022-09-09T15:41:21;22.33;;;13.52;;
23394;SDS011;11870;53.084;18.206;2022-09-09T15:43:49;25.25;;;14.40;;
23394;SDS011;11870;53.084;18.206;2022-09-09T15:48:42;26.75;;;14.85;;
23394;SDS011;11870;53.084;18.206;2022-09-09T15:51:14;25.15;;;14.45;;
23394;SDS011;11870;53.084;18.206;2022-09-09T15:53:40;21.90;;;14.15;;
23394;SDS011;11870;53.084;18.206;2022-09-09T15:56:06;22.48;;;14.18;;
23394;SDS011;11870;53.084;18.206;2022-09-09T15:58:33;24.05;;;14.30;;
23394;SDS011;11870;53.084;18.206;2022-09-09T16:01:05;21.58;;;13.05;;
23394;SDS011;11870;53.084;18.206;2022-09-09T16:03:35;24.02;;;14.15;;
23394;SDS011;11870;53.084;18.206;2022-09-09T16:06:03;21.25;;;12.93;;
23394;SDS011;11870;53.084;18.206;2022-09-09T16:08:34;20.23;;;12.07;;
23394;SDS011;11870;53.084;18.206;2022-09-09T16:11:08;24.10;;;13.32;;
23394;SDS011;11870;53.084;18.206;2022-09-09T16:13:36;20.90;;;12.82;;
23394;SDS011;11870;53.084;18.206;2022-09-09T16:16:03;21.50;;;13.43;;
23394;SDS011;11870;53.084;18.206;2022-09-09T16:18:51;25.08;;;15.65;;
23394;SDS011;11870;53.084;18.206;2022-09-09T16:21:26;23.25;;;12.98;;
23394;SDS011;11870;53.084;18.206;2022-09-09T16:23:55;22.80;;;14.13;;
23394;SDS011;11870;53.084;18.206;2022-09-09T16:26:25;21.95;;;13.07;;
23394;SDS011;11870;53.084;18.206;2022-09-09T16:28:56;22.25;;;13.80;;
23394;SDS011;11870;53.084;18.206;2022-09-09T16:31:26;22.50;;;13.00;;
23394;SDS011;11870;53.084;18.206;2022-09-09T16:33:54;26.13;;;13.45;;
23394;SDS011;11870;53.084;18.206;2022-09-09T16:36:20;21.70;;;12.80;;
23394;SDS011;11870;53.084;18.206;2022-09-09T16:38:52;23.55;;;12.95;;
23394;SDS011;11870;53.084;18.206;2022-09-09T16:41:20;23.45;;;13.65;;
23394;SDS011;11870;53.084;18.206;2022-09-09T16:43:46;23.67;;;14.95;;
23394;SDS011;11870;53.084;18.206;2022-09-09T16:46:13;20.75;;;13.45;;
23394;SDS011;11870;53.084;18.206;2022-09-09T16:48:42;27.85;;;14.93;;
23394;SDS011;11870;53.084;18.206;2022-09-09T16:51:12;27.63;;;15.60;;
23394;SDS011;11870;53.084;18.206;2022-09-09T16:53:46;23.65;;;15.00;;
23394;SDS011;11870;53.084;18.206;2022-09-09T16:56:14;24.73;;;14.85;;
23394;SDS011;11870;53.084;18.206;2022-09-09T16:58:41;48.80;;;31.60;;
23394;SDS011;11870;53.084;18.206;2022-09-09T17:01:11;26.02;;;16.52;;